createdAt,value
2022-07-30T00:01:33.746Z,20.87
2022-07-30T00:04:02.965Z,20.84
2022-07-30T00:06:29.779Z,20.79
2022-07-30T00:08:58.061Z,20.74
2022-07-30T00:11:27.913Z,20.67
2022-07-30T00:13:59.183Z,20.58
2022-07-30T00:16:27.874Z,20.50
2022-07-30T00:18:55.929Z,20.41
2022-07-30T00:21:38.898Z,20.35
2022-07-30T00:24:07.815Z,20.30
2022-07-30T00:26:35.820Z,20.26
2022-07-30T00:29:03.239Z,20.26
2022-07-30T00:31:32.062Z,20.27
2022-07-30T00:33:58.816Z,20.26
2022-07-30T00:36:25.901Z,20.27
2022-07-30T00:38:52.517Z,20.25
2022-07-30T00:41:19.683Z,20.22
2022-07-30T00:43:46.994Z,20.17
2022-07-30T00:46:14.420Z,20.11
2022-07-30T00:48:41.542Z,20.16
2022-07-30T00:51:12.756Z,20.13
2022-07-30T00:53:41.614Z,20.10
2022-07-30T00:56:08.335Z,20.10
2022-07-30T00:58:35.398Z,20.09
2022-07-30T01:01:02.380Z,20.09
2022-07-30T01:03:29.104Z,20.09
2022-07-30T01:05:55.610Z,20.08
2022-07-30T01:08:22.162Z,20.05
2022-07-30T01:10:50.621Z,20.01
2022-07-30T01:13:17.925Z,19.97
2022-07-30T01:15:48.230Z,19.92
2022-07-30T01:18:15.564Z,19.86
2022-07-30T01:20:49.542Z,19.79
2022-07-30T01:23:30.586Z,19.68
2022-07-30T01:26:02.802Z,19.62
2022-07-30T01:28:37.038Z,19.54
2022-07-30T01:31:07.214Z,19.44
2022-07-30T01:33:38.854Z,19.38
2022-07-30T01:36:06.641Z,19.37
2022-07-30T01:38:35.226Z,19.36
2022-07-30T01:41:02.293Z,19.33
2022-07-30T01:43:29.619Z,19.32
2022-07-30T01:45:57.742Z,19.30
2022-07-30T01:48:25.704Z,19.28
2022-07-30T01:50:54.440Z,19.29
2022-07-30T01:53:23.338Z,19.27
2022-07-30T01:55:52.962Z,19.24
2022-07-30T01:58:20.399Z,19.21
2022-07-30T02:00:55.155Z,19.18
2022-07-30T02:03:25.093Z,19.16
2022-07-30T02:06:20.579Z,19.13
2022-07-30T02:08:53.239Z,19.10
2022-07-30T02:11:39.242Z,19.07
2022-07-30T02:14:23.301Z,19.03
2022-07-30T02:16:58.572Z,18.98
2022-07-30T02:19:32.513Z,18.94
2022-07-30T02:22:12.486Z,18.88
2022-07-30T02:24:42.134Z,18.80
2022-07-30T02:27:15.027Z,18.73
2022-07-30T02:29:42.136Z,18.68
2022-07-30T02:32:14.076Z,18.64
2022-07-30T02:34:41.281Z,18.61
2022-07-30T02:37:08.425Z,18.57
2022-07-30T02:39:36.251Z,18.53
2022-07-30T02:42:03.932Z,18.48
2022-07-30T02:44:34.430Z,18.45
2022-07-30T02:47:04.745Z,18.42
2022-07-30T02:49:53.485Z,18.38
2022-07-30T02:52:20.084Z,18.36
2022-07-30T02:54:46.566Z,18.35
2022-07-30T02:57:13.428Z,18.33
2022-07-30T02:59:40.564Z,18.32
2022-07-30T03:02:08.792Z,18.30
2022-07-30T03:04:36.337Z,18.32
2022-07-30T03:07:08.406Z,18.34
2022-07-30T03:09:50.717Z,18.37
2022-07-30T03:12:20.992Z,18.41
2022-07-30T03:14:53.274Z,18.47
2022-07-30T03:17:19.891Z,18.51
2022-07-30T03:19:46.408Z,18.57
2022-07-30T03:22:15.143Z,18.63
2022-07-30T03:24:41.689Z,18.68
2022-07-30T03:27:13.093Z,18.77
2022-07-30T03:29:39.725Z,18.85
2022-07-30T03:32:06.881Z,18.93
2022-07-30T03:34:34.175Z,19.01
2022-07-30T03:37:05.088Z,19.09
2022-07-30T03:39:33.554Z,19.19
2022-07-30T03:42:03.271Z,19.27
2022-07-30T03:44:31.339Z,19.34
2022-07-30T03:46:58.231Z,19.43
2022-07-30T03:49:25.495Z,19.51
2022-07-30T03:51:52.133Z,19.57
2022-07-30T03:54:22.222Z,19.64
2022-07-30T03:57:07.635Z,19.71
2022-07-30T03:59:42.710Z,19.78
2022-07-30T04:02:09.401Z,19.83
2022-07-30T04:04:53.829Z,19.88
2022-07-30T04:07:20.472Z,19.94
2022-07-30T04:09:47.146Z,19.94
2022-07-30T04:12:37.362Z,20.03
2022-07-30T04:16:04.587Z,20.08
2022-07-30T04:17:53.320Z,20.11
2022-07-30T04:20:22.946Z,20.18
2022-07-30T04:22:50.930Z,20.22
2022-07-30T04:25:20.438Z,20.25
2022-07-30T04:28:03.436Z,20.31
2022-07-30T04:30:35.083Z,20.35
2022-07-30T04:33:04.344Z,20.41
2022-07-30T04:35:51.721Z,20.47
2022-07-30T04:38:36.529Z,20.53
2022-07-30T04:41:03.092Z,20.58
2022-07-30T04:43:37.667Z,20.61
2022-07-30T04:46:04.852Z,20.64
2022-07-30T04:48:31.538Z,20.68
2022-07-30T04:51:13.401Z,20.72
2022-07-30T04:53:40.373Z,20.74
2022-07-30T04:56:07.077Z,20.77
2022-07-30T04:58:40.613Z,20.79
2022-07-30T05:01:08.362Z,20.81
2022-07-30T05:03:35.161Z,20.83
2022-07-30T05:06:01.688Z,20.87
2022-07-30T05:08:31.311Z,20.88
2022-07-30T05:10:59.621Z,20.93
2022-07-30T05:13:34.468Z,20.96
2022-07-30T05:16:09.065Z,20.99
2022-07-30T05:18:35.803Z,21.01
2022-07-30T05:21:05.391Z,21.06
2022-07-30T05:23:35.897Z,21.11
2022-07-30T05:26:12.129Z,21.16
2022-07-30T05:28:50.693Z,21.25
2022-07-30T05:31:24.085Z,21.33
2022-07-30T05:33:58.283Z,21.45
2022-07-30T05:36:28.391Z,21.55
2022-07-30T05:38:55.724Z,21.63
2022-07-30T05:41:37.176Z,21.72
2022-07-30T05:44:10.131Z,21.75
2022-07-30T05:46:37.356Z,21.81
2022-07-30T05:49:06.532Z,21.85
2022-07-30T05:51:33.660Z,21.88
2022-07-30T05:54:02.163Z,21.91
2022-07-30T05:56:47.455Z,21.93
2022-07-30T05:59:17.848Z,21.93
2022-07-30T06:02:03.388Z,21.97
2022-07-30T06:04:54.628Z,21.99
2022-07-30T06:07:21.396Z,22.01
2022-07-30T06:09:51.570Z,22.03
2022-07-30T06:12:19.870Z,22.06
2022-07-30T06:14:47.300Z,22.07
2022-07-30T06:17:18.788Z,22.07
2022-07-30T06:20:05.092Z,22.10
2022-07-30T06:22:37.242Z,22.11
2022-07-30T06:25:09.695Z,22.15
2022-07-30T06:27:39.704Z,22.16
2022-07-30T06:30:09.052Z,22.20
2022-07-30T06:32:35.860Z,22.25
2022-07-30T06:35:04.873Z,22.28
2022-07-30T06:37:58.468Z,22.31
2022-07-30T06:40:21.868Z,22.37
2022-07-30T06:43:14.735Z,22.41
2022-07-30T06:46:01.251Z,22.47
2022-07-30T06:48:33.107Z,22.53
2022-07-30T06:51:03.450Z,22.60
2022-07-30T06:53:30.531Z,22.68
2022-07-30T06:56:19.765Z,22.82
2022-07-30T06:58:49.107Z,22.94
2022-07-30T07:01:36.884Z,23.09
2022-07-30T07:04:03.815Z,23.22
2022-07-30T07:06:34.240Z,23.35
2022-07-30T07:09:02.839Z,23.47
2022-07-30T07:11:37.895Z,23.59
2022-07-30T07:14:08.786Z,23.68
2022-07-30T07:16:36.748Z,23.75
2022-07-30T07:20:00.931Z,23.85
2022-07-30T07:22:13.666Z,23.92
2022-07-30T07:24:41.447Z,23.98
2022-07-30T07:27:15.558Z,24.07
2022-07-30T07:29:43.931Z,24.13
2022-07-30T07:32:30.648Z,24.21
2022-07-30T07:35:01.555Z,24.27
2022-07-30T07:37:31.106Z,24.35
2022-07-30T07:39:59.462Z,24.41
2022-07-30T07:42:26.438Z,24.47
2022-07-30T07:44:55.653Z,24.51
2022-07-30T07:47:23.800Z,24.55
2022-07-30T07:50:10.578Z,24.59
2022-07-30T07:52:37.219Z,24.62
2022-07-30T07:55:06.720Z,24.66
2022-07-30T07:57:41.749Z,24.71
2022-07-30T08:00:09.688Z,24.78
2022-07-30T08:02:50.658Z,24.85
2022-07-30T08:05:19.243Z,24.93
2022-07-30T08:07:55.396Z,25.02
2022-07-30T08:10:40.649Z,25.08
2022-07-30T08:13:48.627Z,25.17
2022-07-30T08:16:36.349Z,25.23
2022-07-30T08:19:08.611Z,25.26
2022-07-30T08:21:39.712Z,25.30
2022-07-30T08:24:08.544Z,25.34
2022-07-30T08:26:35.181Z,25.40
2022-07-30T08:29:03.253Z,25.45
2022-07-30T08:31:29.843Z,25.53
2022-07-30T08:34:01.179Z,25.60
2022-07-30T08:36:27.906Z,25.62
2022-07-30T08:38:54.547Z,25.66
2022-07-30T08:41:21.286Z,25.69
2022-07-30T08:43:49.617Z,25.75
2022-07-30T08:46:17.642Z,25.80
2022-07-30T08:49:14.211Z,25.85
2022-07-30T08:51:42.108Z,25.89
2022-07-30T08:54:13.636Z,25.95
2022-07-30T08:56:40.580Z,26.00
2022-07-30T08:59:08.845Z,26.04
2022-07-30T09:01:35.603Z,26.12
2022-07-30T09:04:03.464Z,26.18
2022-07-30T09:06:31.419Z,26.21
2022-07-30T09:09:00.771Z,26.26
2022-07-30T09:11:27.470Z,26.30
2022-07-30T09:13:55.525Z,26.35
2022-07-30T09:16:23.860Z,26.39
2022-07-30T09:18:52.019Z,26.43
2022-07-30T09:21:28.481Z,26.46
2022-07-30T09:24:22.036Z,26.51
2022-07-30T09:27:10.662Z,26.55
2022-07-30T09:29:45.896Z,26.62
2022-07-30T09:32:55.490Z,26.67
2022-07-30T09:35:43.283Z,26.77
2022-07-30T09:38:13.449Z,26.81
2022-07-30T09:40:57.774Z,26.87
2022-07-30T09:43:49.425Z,26.93
2022-07-30T09:46:22.380Z,26.96
2022-07-30T09:48:49.542Z,27.03
2022-07-30T09:51:16.208Z,27.08
2022-07-30T09:53:55.345Z,27.15
2022-07-30T09:56:30.062Z,27.16
2022-07-30T09:58:57.575Z,27.19
2022-07-30T10:01:49.931Z,27.20
2022-07-30T10:04:48.096Z,27.22
2022-07-30T10:07:25.727Z,27.22
2022-07-30T10:09:58.138Z,27.20
2022-07-30T10:12:29.239Z,27.18
2022-07-30T10:14:56.800Z,27.14
2022-07-30T10:17:26.574Z,27.11
2022-07-30T10:20:26.242Z,27.09
2022-07-30T10:23:15.848Z,27.05
2022-07-30T10:26:17.135Z,27.00
2022-07-30T10:29:04.321Z,26.95
2022-07-30T10:31:49.008Z,26.93
2022-07-30T10:34:23.516Z,26.92
2022-07-30T10:36:57.188Z,26.93
2022-07-30T10:39:37.074Z,26.97
2022-07-30T10:42:09.843Z,26.97
2022-07-30T10:45:17.271Z,26.98
2022-07-30T10:47:49.121Z,26.99
2022-07-30T10:50:22.093Z,27.02
2022-07-30T10:52:50.125Z,27.08
2022-07-30T10:55:37.653Z,27.07
2022-07-30T10:58:10.792Z,27.09
2022-07-30T11:00:52.822Z,27.08
2022-07-30T11:03:38.723Z,27.09
2022-07-30T11:06:14.932Z,27.08
2022-07-30T11:08:44.351Z,27.03
2022-07-30T11:11:20.492Z,27.00
2022-07-30T11:13:54.254Z,26.96
2022-07-30T11:16:23.677Z,26.92
2022-07-30T11:19:55.316Z,26.94
2022-07-30T11:22:28.328Z,26.94
2022-07-30T11:24:57.064Z,26.95
2022-07-30T11:27:50.204Z,26.98
2022-07-30T11:30:17.148Z,27.01
2022-07-30T11:34:24.126Z,27.09
2022-07-30T11:37:21.844Z,27.09
2022-07-30T11:39:55.924Z,27.07
2022-07-30T11:42:26.972Z,27.05
2022-07-30T11:44:54.145Z,27.02
2022-07-30T11:47:20.902Z,26.98
2022-07-30T11:49:47.658Z,26.94
2022-07-30T11:52:22.724Z,26.89
2022-07-30T11:54:55.721Z,26.88
2022-07-30T11:57:39.919Z,26.87
2022-07-30T12:00:07.564Z,26.88
2022-07-30T12:02:41.454Z,26.89
2022-07-30T12:05:12.203Z,26.93
2022-07-30T12:07:38.999Z,26.98
2022-07-30T12:10:26.849Z,27.03
2022-07-30T12:12:54.377Z,27.07
2022-07-30T12:15:32.216Z,27.09
2022-07-30T12:18:24.225Z,27.12
2022-07-30T12:20:53.460Z,27.12
2022-07-30T12:23:21.583Z,27.12
2022-07-30T12:25:50.998Z,27.14
2022-07-30T12:28:28.679Z,27.16
2022-07-30T12:30:56.103Z,27.24
2022-07-30T12:33:23.060Z,27.31
2022-07-30T12:35:50.536Z,27.39
2022-07-30T12:38:17.892Z,27.48
2022-07-30T12:41:01.039Z,27.55
2022-07-30T12:43:52.636Z,27.60
2022-07-30T12:46:23.856Z,27.59
2022-07-30T12:48:56.100Z,27.55
2022-07-30T12:51:24.269Z,27.53
2022-07-30T12:53:52.790Z,27.46
2022-07-30T12:56:24.759Z,27.40
2022-07-30T12:58:51.684Z,27.35
2022-07-30T13:01:18.560Z,27.28
2022-07-30T13:03:45.577Z,27.23
2022-07-30T13:06:18.877Z,27.18
2022-07-30T13:08:55.802Z,27.14
2022-07-30T13:11:23.130Z,27.09
2022-07-30T13:13:50.324Z,27.07
2022-07-30T13:16:17.293Z,27.04
2022-07-30T13:18:44.056Z,27.02
2022-07-30T13:21:11.350Z,27.00
2022-07-30T13:23:41.541Z,26.98
2022-07-30T13:26:08.609Z,26.97
2022-07-30T13:28:35.408Z,26.95
2022-07-30T13:31:02.240Z,26.92
2022-07-30T13:33:29.044Z,26.92
2022-07-30T13:35:55.804Z,26.91
2022-07-30T13:38:22.589Z,26.89
2022-07-30T13:40:49.331Z,26.88
2022-07-30T13:43:17.202Z,26.87
2022-07-30T13:45:44.064Z,26.87
2022-07-30T13:48:11.040Z,26.88
2022-07-30T13:50:37.773Z,26.89
2022-07-30T13:53:05.413Z,26.90
2022-07-30T13:55:32.279Z,26.93
2022-07-30T13:57:59.088Z,26.98
2022-07-30T14:00:31.636Z,27.03
2022-07-30T14:03:01.853Z,27.08
2022-07-30T14:05:28.876Z,27.13
2022-07-30T14:07:55.629Z,27.17
2022-07-30T14:10:22.885Z,27.22
2022-07-30T14:12:50.676Z,27.26
2022-07-30T14:15:17.958Z,27.28
2022-07-30T14:17:44.826Z,27.32
2022-07-30T14:20:23.732Z,27.33
2022-07-30T14:22:50.475Z,27.33
2022-07-30T14:25:17.254Z,27.34
2022-07-30T14:27:44.044Z,27.38
2022-07-30T14:30:14.980Z,27.40
2022-07-30T14:32:41.855Z,27.41
2022-07-30T14:35:09.324Z,27.39
2022-07-30T14:37:36.844Z,27.41
2022-07-30T14:40:05.201Z,27.41
2022-07-30T14:42:31.960Z,27.41
2022-07-30T14:44:58.698Z,27.41
2022-07-30T14:47:25.480Z,27.41
2022-07-30T14:49:52.290Z,27.40
2022-07-30T14:52:19.062Z,27.40
2022-07-30T14:54:45.807Z,27.39
2022-07-30T14:57:12.593Z,27.39
2022-07-30T14:59:39.315Z,27.40
2022-07-30T15:02:10.507Z,27.40
2022-07-30T15:04:37.747Z,27.39
2022-07-30T15:07:04.514Z,27.37
2022-07-30T15:09:34.143Z,27.36
2022-07-30T15:12:08.348Z,27.36
2022-07-30T15:14:39.964Z,27.33
2022-07-30T15:17:07.663Z,27.32
2022-07-30T15:19:34.392Z,27.28
2022-07-30T15:22:02.816Z,27.28
2022-07-30T15:24:30.418Z,27.28
2022-07-30T15:26:57.162Z,27.27
2022-07-30T15:29:24.334Z,27.25
2022-07-30T15:31:51.588Z,27.25
2022-07-30T15:34:18.352Z,27.22
2022-07-30T15:36:45.225Z,27.21
2022-07-30T15:39:12.044Z,27.19
2022-07-30T15:41:39.072Z,27.16
2022-07-30T15:44:05.781Z,27.11
2022-07-30T15:46:32.540Z,27.08
2022-07-30T15:48:59.372Z,27.05
2022-07-30T15:51:26.216Z,27.02
2022-07-30T15:53:52.973Z,27.00
2022-07-30T15:56:19.724Z,26.98
2022-07-30T15:58:46.807Z,26.96
2022-07-30T16:01:13.604Z,26.94
2022-07-30T16:03:40.410Z,26.92
2022-07-30T16:06:07.145Z,26.87
2022-07-30T16:08:33.948Z,26.84
2022-07-30T16:11:03.808Z,26.80
2022-07-30T16:13:31.438Z,26.76
2022-07-30T16:15:58.309Z,26.71
2022-07-30T16:18:25.040Z,26.66
2022-07-30T16:20:51.803Z,26.64
2022-07-30T16:23:21.549Z,26.61
2022-07-30T16:25:48.566Z,26.56
2022-07-30T16:28:15.395Z,26.53
2022-07-30T16:30:51.486Z,26.50
2022-07-30T16:33:19.279Z,26.46
2022-07-30T16:35:48.617Z,26.43
2022-07-30T16:38:17.372Z,26.39
2022-07-30T16:40:44.431Z,26.37
2022-07-30T16:43:11.131Z,26.34
2022-07-30T16:45:38.180Z,26.30
2022-07-30T16:48:05.372Z,26.25
2022-07-30T16:50:32.128Z,26.18
2022-07-30T16:52:58.922Z,26.14
2022-07-30T16:55:25.954Z,26.08
2022-07-30T16:57:52.686Z,26.03
2022-07-30T17:00:19.495Z,25.99
2022-07-30T17:02:46.253Z,25.94
2022-07-30T17:05:13.920Z,25.88
2022-07-30T17:07:40.786Z,25.83
2022-07-30T17:10:10.975Z,25.79
2022-07-30T17:12:38.987Z,25.74
2022-07-30T17:15:07.391Z,25.69
2022-07-30T17:17:34.194Z,25.64
2022-07-30T17:20:02.013Z,25.59
2022-07-30T17:22:29.050Z,25.54
2022-07-30T17:24:55.934Z,25.49
2022-07-30T17:27:22.930Z,25.45
2022-07-30T17:29:50.538Z,25.39
2022-07-30T17:32:18.842Z,25.32
2022-07-30T17:34:46.007Z,25.26
2022-07-30T17:37:12.819Z,25.20
2022-07-30T17:40:26.911Z,25.14
2022-07-30T17:42:26.335Z,25.09
2022-07-30T17:44:53.081Z,25.02
2022-07-30T17:47:19.838Z,24.99
2022-07-30T17:49:46.601Z,24.92
2022-07-30T17:52:13.375Z,24.86
2022-07-30T17:54:40.198Z,24.82
2022-07-30T17:57:07.155Z,24.78
2022-07-30T17:59:33.935Z,24.73
2022-07-30T18:02:01.208Z,24.69
2022-07-30T18:04:28.308Z,24.63
2022-07-30T18:06:55.123Z,24.58
2022-07-30T18:09:22.077Z,24.53
2022-07-30T18:11:49.300Z,24.48
2022-07-30T18:14:16.109Z,24.42
2022-07-30T18:16:42.879Z,24.38
2022-07-30T18:19:22.363Z,24.34
2022-07-30T18:21:54.370Z,24.28
2022-07-30T18:24:24.762Z,24.24
2022-07-30T18:26:51.834Z,24.20
2022-07-30T18:29:18.625Z,24.19
2022-07-30T18:31:45.332Z,24.15
2022-07-30T18:34:12.108Z,24.11
2022-07-30T18:36:38.867Z,24.07
2022-07-30T18:39:05.629Z,24.03
2022-07-30T18:41:32.455Z,23.98
2022-07-30T18:43:59.276Z,23.94
2022-07-30T18:46:26.094Z,23.91
2022-07-30T18:48:53.031Z,23.87
2022-07-30T18:51:19.962Z,23.84
2022-07-30T18:53:47.872Z,23.81
2022-07-30T18:56:14.630Z,23.77
2022-07-30T18:58:41.660Z,23.73
2022-07-30T19:01:09.610Z,23.69
2022-07-30T19:03:36.424Z,23.62
2022-07-30T19:06:03.292Z,23.58
2022-07-30T19:08:30.054Z,23.55
2022-07-30T19:10:57.014Z,23.50
2022-07-30T19:13:26.669Z,23.44
2022-07-30T19:15:54.062Z,23.40
2022-07-30T19:18:20.864Z,23.35
2022-07-30T19:20:47.712Z,23.30
2022-07-30T19:23:16.416Z,23.25
2022-07-30T19:25:43.163Z,23.20
2022-07-30T19:28:11.720Z,23.16
2022-07-30T19:30:39.257Z,23.10
2022-07-30T19:33:11.272Z,23.03
2022-07-30T19:35:41.835Z,23.01
2022-07-30T19:38:09.917Z,22.97
2022-07-30T19:40:39.603Z,22.90
2022-07-30T19:43:10.003Z,22.90
2022-07-30T19:45:47.299Z,22.87
2022-07-30T19:48:29.104Z,22.84
2022-07-30T19:50:58.876Z,22.82
2022-07-30T19:53:26.255Z,22.79
2022-07-30T19:55:54.739Z,22.77
2022-07-30T19:58:22.123Z,22.75
2022-07-30T20:00:51.755Z,22.74
2022-07-30T20:03:26.067Z,22.70
2022-07-30T20:05:59.865Z,22.70
2022-07-30T20:08:27.778Z,22.68
2022-07-30T20:10:57.577Z,22.66
2022-07-30T20:13:44.158Z,22.64
2022-07-30T20:16:15.563Z,22.61
2022-07-30T20:18:42.955Z,22.59
2022-07-30T20:21:14.868Z,22.57
2022-07-30T20:23:42.705Z,22.52
2022-07-30T20:26:13.742Z,22.51
2022-07-30T20:28:42.124Z,22.48
2022-07-30T20:31:08.920Z,22.45
2022-07-30T20:33:39.027Z,22.41
2022-07-30T20:36:09.513Z,22.38
2022-07-30T20:38:38.973Z,22.34
2022-07-30T20:41:10.312Z,22.32
2022-07-30T20:43:51.817Z,22.29
2022-07-30T20:46:19.956Z,22.25
2022-07-30T20:48:46.820Z,22.21
2022-07-30T20:51:14.012Z,22.17
2022-07-30T20:53:45.087Z,22.15
2022-07-30T20:56:13.246Z,22.11
2022-07-30T20:58:40.911Z,22.09
2022-07-30T21:01:07.882Z,22.05
2022-07-30T21:03:35.903Z,22.03
2022-07-30T21:06:03.348Z,21.99
2022-07-30T21:08:31.519Z,21.96
2022-07-30T21:11:00.225Z,21.93
2022-07-30T21:13:27.180Z,21.91
2022-07-30T21:16:02.644Z,21.88
2022-07-30T21:18:31.158Z,21.85
2022-07-30T21:20:58.108Z,21.83
2022-07-30T21:23:27.519Z,21.79
2022-07-30T21:26:00.695Z,21.78
2022-07-30T21:28:35.369Z,21.75
2022-07-30T21:31:04.137Z,21.72
2022-07-30T21:33:37.889Z,21.68
2022-07-30T21:36:10.218Z,21.68
2022-07-30T21:38:38.951Z,21.66
2022-07-30T21:41:13.860Z,21.64
2022-07-30T21:43:42.032Z,21.59
2022-07-30T21:46:10.494Z,21.58
2022-07-30T21:48:37.456Z,21.56
2022-07-30T21:51:06.566Z,21.53
2022-07-30T21:53:44.801Z,21.50
2022-07-30T21:56:13.523Z,21.48
2022-07-30T21:58:41.264Z,21.45
2022-07-30T22:01:17.783Z,21.43
2022-07-30T22:04:04.068Z,21.40
2022-07-30T22:06:34.551Z,21.35
2022-07-30T22:09:03.462Z,21.34
2022-07-30T22:11:42.407Z,21.31
2022-07-30T22:14:12.018Z,21.27
2022-07-30T22:16:39.017Z,21.25
2022-07-30T22:19:14.327Z,21.22
2022-07-30T22:21:42.434Z,21.18
2022-07-30T22:24:29.828Z,21.16
2022-07-30T22:27:00.949Z,21.13
2022-07-30T22:29:34.496Z,21.12
2022-07-30T22:32:03.931Z,21.10
2022-07-30T22:34:31.120Z,21.09
2022-07-30T22:36:57.935Z,21.09
2022-07-30T22:39:32.260Z,21.07
2022-07-30T22:42:12.760Z,21.06
2022-07-30T22:44:39.720Z,21.03
2022-07-30T22:47:20.941Z,20.98
2022-07-30T22:49:54.748Z,20.98
2022-07-30T22:52:28.058Z,20.96
2022-07-30T22:54:56.511Z,20.92
2022-07-30T22:57:29.052Z,20.90
2022-07-30T23:00:07.121Z,20.88
2022-07-30T23:02:41.165Z,20.86
2022-07-30T23:05:08.948Z,20.84
2022-07-30T23:10:25.707Z,20.80
2022-07-30T23:12:30.999Z,20.82
2022-07-30T23:12:54.968Z,20.78
2022-07-30T23:15:21.814Z,20.76
2022-07-30T23:17:48.716Z,20.73
2022-07-30T23:20:17.141Z,20.72
2022-07-30T23:22:44.103Z,20.70
2022-07-30T23:25:11.221Z,20.69
2022-07-30T23:27:38.213Z,20.67
2022-07-30T23:30:06.998Z,20.67
2022-07-30T23:32:33.771Z,20.65
2022-07-30T23:35:00.515Z,20.64
2022-07-30T23:37:27.425Z,20.63
2022-07-30T23:39:54.267Z,20.61
2022-07-30T23:42:21.040Z,20.58
2022-07-30T23:44:47.818Z,20.56
2022-07-30T23:47:14.696Z,20.53
2022-07-30T23:51:53.279Z,20.51
2022-07-30T23:54:21.343Z,20.46
2022-07-30T23:56:53.271Z,20.43
2022-07-30T23:59:20.062Z,20.40
